Maldives Meteorological Service

METAR

Station
VRMM
METAR VRMM 220800Z 27010KT 9999 FEW018 FEW019CB BKN270 31/25 Q1011 CB N NOSIG=
VRMH
METAR VRMH 220800Z 29007KT 9999 FEW018 SCT120 31/25 Q1012=
VRMK
METAR VRMK 220800Z 25004KT 9999 FEW018 BKN130 31/25 Q1012=
VRMT
METAR VRMT 220800Z 25006KT 9999 FEW018TCU SCT130 30/25 Q1012=
VRMG
METAR VRMG 220800Z 28006KT 9999 SCT017 FEW018CB BKN120 30/25 Q1012 CB S,W TEMPO 5000 -SHRA=
Last Updated : 2018-10-22 13:01:10

SPECI

Station
VRMM
VRMH
VRMK
VRMT
VRMG
Last Updated : 2018-10-22 13:01:10